Back to top

Jackson, WY weather

Jackson Hole Airport (AWOS), Jackson, WY: 11/13/2019 16:56
Visibility10 statute milessun with scattered clouds
View 7-Day Forecast
Area Summary
Sky/CloudsScattered at 6500ft
Weather [last 24 hours]None
Pressure30.13 in.Hg (1020 hPa)
3-hour Pressure Tendency0.01476 in.Hg (0.5 hPa) Decreasing or steady, then increasing; or increasing then increasing more rapidly
Dew Point19.9 °F (-6.7 °C)
Relative Humidity42.5 %
Temperature41 °F (5 °C)red thermometer
Wind Chill38 °F (3.31 °C)
Reading TimeMinimum to Maximum Temperature
6-hr ending 11/13@16:5639.9 °F to 46.9 °F (4.4 °C to 8.3 °C)
6-hr ending 11/13@10:5628 °F to 44.1 °F (-2.2 °C to 6.7 °C)
6-hr ending 11/13@04:5636 °F to 41 °F (2.2 °C to 5 °C)
6-hr ending 11/12@22:5639 °F to 43 °F (3.9 °C to 6.1 °C)
24-hr ending 11/12@23:567 °F to 46.9 °F (-13.9 °C to 8.3 °C)
Wind4.6 MPH (4 KT) green arrow pointing 337.5 degrees
Wind FromNorth/Northwest (330 Degrees)
Twilight Begins06:43Sunshine Yesterday
Sunrise07:14N/A
Sunset17:01
Twilight Ends17:31
METARKJAC 132356Z 33004KT 10SM SCT065 05/M07 A3013 RMK AO2 SLP210 T00501067 10083 20044 53005
Tags: